ACA7137 EDHI-CYQG
Flight info
| Callsign | ACA7137 |
|---|---|
| Flight time | N/A |
| Altitude | 38000 |
| Route | WSN4W WSN N125 PREXA L602 NALAX L46 GETNO DCT SUROX DCT DEVOL DCT BEXET DCT DOGAL/M078F380 NATD NEEKO/N0450F380 N620C MIILS Q907 DERLO Q818 KITOK/N0428F370 DCT PICUP AUTTO1 |
| Aircraft | A21N/M-SDE3FGHIRWY/LB1 |
Departure
| Time | 2026-04-24 13:11 |
|---|---|
| Airport | Hamburg-Finkenwerder Airport (EDHI) |
Arrival
| Time | N/A |
|---|---|
| Airport | Windsor International Airport (CYQG) |
| Time | Latitude | Longitude | Altitude | Speed | Heading |
|---|---|---|---|---|---|
| 2026-04-24 12:47 | 53.53108 | 9.83527 | 24 ft | 0 kts | 206° |
| 2026-04-24 13:02 | 53.53117 | 9.83536 | 24 ft | 2 kts | 221° |
| 2026-04-24 13:02 | 53.53127 | 9.83555 | 25 ft | 2 kts | 239° |
| 2026-04-24 13:02 | 53.53133 | 9.83579 | 25 ft | 2 kts | 258° |
| 2026-04-24 13:03 | 53.53134 | 9.83604 | 25 ft | 2 kts | 276° |
| 2026-04-24 13:03 | 53.53131 | 9.83629 | 25 ft | 2 kts | 295° |
| 2026-04-24 13:03 | 53.53124 | 9.83651 | 25 ft | 2 kts | 296° |
| 2026-04-24 13:03 | 53.53122 | 9.83658 | 25 ft | 0 kts | 294° |
| 2026-04-24 13:05 | 53.53122 | 9.83657 | 25 ft | 0 kts | 294° |
| 2026-04-24 13:05 | 53.53130 | 9.83628 | 25 ft | 5 kts | 295° |
| 2026-04-24 13:06 | 53.53148 | 9.83561 | 24 ft | 6 kts | 295° |
| 2026-04-24 13:06 | 53.53169 | 9.83485 | 24 ft | 7 kts | 295° |
| 2026-04-24 13:06 | 53.53204 | 9.83424 | 24 ft | 8 kts | 1° |
| 2026-04-24 13:06 | 53.53265 | 9.83427 | 24 ft | 9 kts | 355° |
| 2026-04-24 13:07 | 53.53328 | 9.83410 | 24 ft | 9 kts | 349° |
| 2026-04-24 13:07 | 53.53395 | 9.83387 | 24 ft | 10 kts | 349° |
| 2026-04-24 13:07 | 53.53463 | 9.83408 | 24 ft | 10 kts | 47° |
| 2026-04-24 13:07 | 53.53514 | 9.83516 | 24 ft | 13 kts | 52° |
| 2026-04-24 13:08 | 53.53591 | 9.83676 | 24 ft | 22 kts | 51° |
| 2026-04-24 13:08 | 53.53704 | 9.83917 | 24 ft | 30 kts | 52° |
| 2026-04-24 13:08 | 53.53838 | 9.84203 | 25 ft | 31 kts | 51° |
| 2026-04-24 13:09 | 53.54091 | 9.84738 | 26 ft | 27 kts | 51° |
| 2026-04-24 13:09 | 53.54199 | 9.84952 | 26 ft | 14 kts | 28° |
| 2026-04-24 13:09 | 53.54279 | 9.85000 | 27 ft | 12 kts | 52° |
| 2026-04-24 13:09 | 53.54245 | 9.85064 | 27 ft | 8 kts | 223° |
| 2026-04-24 13:10 | 53.54234 | 9.85043 | 27 ft | 0 kts | 232° |
| 2026-04-24 13:10 | 53.54228 | 9.85029 | 27 ft | 9 kts | 232° |
| 2026-04-24 13:10 | 53.54004 | 9.84552 | 26 ft | 92 kts | 232° |
| 2026-04-24 13:11 | 53.53463 | 9.83420 | 37 ft | 154 kts | 232° |
| 2026-04-24 13:11 | 53.52737 | 9.81893 | 475 ft | 174 kts | 235° |
| 2026-04-24 13:11 | 53.51993 | 9.80346 | 1355 ft | 175 kts | 236° |
| 2026-04-24 13:11 | 53.51270 | 9.78808 | 2243 ft | 170 kts | 238° |
| 2026-04-24 13:12 | 53.50523 | 9.77163 | 2727 ft | 185 kts | 238° |
| 2026-04-24 13:12 | 53.49717 | 9.75391 | 3182 ft | 201 kts | 238° |
| 2026-04-24 13:12 | 53.48934 | 9.73335 | 3598 ft | 216 kts | 249° |
| 2026-04-24 13:12 | 53.48412 | 9.70881 | 3974 ft | 235 kts | 259° |
| 2026-04-24 13:13 | 53.47971 | 9.68152 | 4463 ft | 252 kts | 260° |
| 2026-04-24 13:13 | 53.47512 | 9.65227 | 5099 ft | 263 kts | 261° |
| 2026-04-24 13:13 | 53.47040 | 9.62246 | 5873 ft | 269 kts | 261° |
| 2026-04-24 13:13 | 53.46553 | 9.59200 | 6667 ft | 274 kts | 261° |
| 2026-04-24 13:14 | 53.46055 | 9.56101 | 7457 ft | 278 kts | 261° |
| 2026-04-24 13:14 | 53.45552 | 9.52975 | 8254 ft | 282 kts | 261° |
| 2026-04-24 13:14 | 53.45044 | 9.49822 | 9044 ft | 286 kts | 261° |
| 2026-04-24 13:14 | 53.44526 | 9.46626 | 9814 ft | 289 kts | 261° |
| 2026-04-24 13:15 | 53.43989 | 9.43331 | 10566 ft | 293 kts | 260° |
| 2026-04-24 13:15 | 53.43446 | 9.39982 | 11008 ft | 308 kts | 260° |
| 2026-04-24 13:15 | 53.42870 | 9.36446 | 11523 ft | 320 kts | 259° |
| 2026-04-24 13:15 | 53.42275 | 9.32825 | 12258 ft | 323 kts | 258° |
| 2026-04-24 13:16 | 53.41676 | 9.29197 | 13000 ft | 326 kts | 258° |
| 2026-04-24 13:16 | 53.41069 | 9.25531 | 13724 ft | 328 kts | 258° |
| 2026-04-24 13:16 | 53.40459 | 9.21834 | 14428 ft | 331 kts | 258° |
| 2026-04-24 13:16 | 53.39843 | 9.18117 | 15118 ft | 333 kts | 258° |
| 2026-04-24 13:17 | 53.39225 | 9.14380 | 15791 ft | 335 kts | 258° |
| 2026-04-24 13:17 | 53.38603 | 9.10623 | 16441 ft | 338 kts | 258° |
| 2026-04-24 13:17 | 53.37979 | 9.06869 | 17068 ft | 340 kts | 257° |
| 2026-04-24 13:17 | 53.37336 | 9.03014 | 17662 ft | 343 kts | 257° |
| 2026-04-24 13:18 | 53.36692 | 8.99165 | 18257 ft | 346 kts | 257° |
| 2026-04-24 13:18 | 53.36048 | 8.95337 | 18860 ft | 348 kts | 257° |
| 2026-04-24 13:18 | 53.35390 | 8.91426 | 19452 ft | 349 kts | 257° |
| 2026-04-24 13:18 | 53.34707 | 8.87531 | 20042 ft | 351 kts | 255° |
| 2026-04-24 13:19 | 53.33899 | 8.83699 | 20627 ft | 353 kts | 253° |
| 2026-04-24 13:19 | 53.33048 | 8.79835 | 21223 ft | 354 kts | 252° |
| 2026-04-24 13:19 | 53.32202 | 8.76015 | 21777 ft | 355 kts | 252° |
| 2026-04-24 13:19 | 53.31350 | 8.72170 | 22305 ft | 356 kts | 252° |
| 2026-04-24 13:20 | 53.30480 | 8.68259 | 22818 ft | 358 kts | 252° |
| 2026-04-24 13:20 | 53.29617 | 8.64366 | 23332 ft | 359 kts | 252° |
| 2026-04-24 13:20 | 53.28758 | 8.60446 | 23824 ft | 361 kts | 252° |
| 2026-04-24 13:20 | 53.27903 | 8.56530 | 24280 ft | 363 kts | 253° |
| 2026-04-24 13:21 | 53.27038 | 8.52580 | 24733 ft | 365 kts | 252° |
| 2026-04-24 13:21 | 53.26203 | 8.48558 | 25175 ft | 367 kts | 255° |
| 2026-04-24 13:21 | 53.25437 | 8.44487 | 25617 ft | 369 kts | 255° |
| 2026-04-24 13:21 | 53.24670 | 8.40412 | 26065 ft | 370 kts | 255° |
| 2026-04-24 13:22 | 53.23900 | 8.36319 | 26488 ft | 372 kts | 255° |
| 2026-04-24 13:22 | 53.23118 | 8.32185 | 26895 ft | 375 kts | 254° |
| 2026-04-24 13:22 | 53.22324 | 8.27994 | 27279 ft | 378 kts | 253° |
| 2026-04-24 13:22 | 53.21534 | 8.23837 | 27671 ft | 380 kts | 253° |
| 2026-04-24 13:23 | 53.20723 | 8.19586 | 28071 ft | 382 kts | 253° |
| 2026-04-24 13:23 | 53.19924 | 8.15405 | 28476 ft | 383 kts | 253° |
| 2026-04-24 13:23 | 53.19121 | 8.11193 | 28871 ft | 385 kts | 253° |
| 2026-04-24 13:23 | 53.18311 | 8.06896 | 29244 ft | 387 kts | 253° |
| 2026-04-24 13:24 | 53.17511 | 8.02637 | 29628 ft | 389 kts | 253° |
| 2026-04-24 13:24 | 53.16695 | 7.98304 | 30024 ft | 390 kts | 253° |
| 2026-04-24 13:24 | 53.15886 | 7.94021 | 30365 ft | 392 kts | 253° |
| 2026-04-24 13:24 | 53.15062 | 7.89671 | 30701 ft | 394 kts | 253° |
| 2026-04-24 13:25 | 53.14233 | 7.85312 | 31035 ft | 396 kts | 253° |
| 2026-04-24 13:25 | 53.13407 | 7.80988 | 31357 ft | 398 kts | 253° |
| 2026-04-24 13:25 | 53.12564 | 7.76585 | 31682 ft | 399 kts | 253° |
| 2026-04-24 13:25 | 53.11721 | 7.72190 | 32003 ft | 400 kts | 252° |
| 2026-04-24 13:26 | 53.10873 | 7.67775 | 32313 ft | 402 kts | 253° |
| 2026-04-24 13:26 | 53.10023 | 7.63362 | 32634 ft | 402 kts | 253° |
| 2026-04-24 13:26 | 53.09175 | 7.58960 | 32958 ft | 403 kts | 252° |
| 2026-04-24 13:26 | 53.08322 | 7.54544 | 33254 ft | 404 kts | 252° |
| 2026-04-24 13:27 | 53.07452 | 7.50059 | 33608 ft | 403 kts | 252° |
| 2026-04-24 13:27 | 53.06595 | 7.45657 | 34024 ft | 401 kts | 252° |
| 2026-04-24 13:27 | 53.05737 | 7.41266 | 34422 ft | 399 kts | 252° |
| 2026-04-24 13:27 | 53.04889 | 7.36933 | 34805 ft | 398 kts | 252° |
| 2026-04-24 13:28 | 53.04028 | 7.32554 | 35172 ft | 397 kts | 251° |
| 2026-04-24 13:28 | 53.03166 | 7.28175 | 35521 ft | 397 kts | 251° |
| 2026-04-24 13:28 | 53.02315 | 7.23854 | 35901 ft | 395 kts | 251° |
| 2026-04-24 13:28 | 53.01461 | 7.19541 | 36261 ft | 394 kts | 251° |
| 2026-04-24 13:29 | 53.00594 | 7.15237 | 36590 ft | 393 kts | 251° |
| 2026-04-24 13:29 | 52.99717 | 7.10913 | 36849 ft | 394 kts | 251° |
| 2026-04-24 13:29 | 52.98847 | 7.06640 | 37065 ft | 395 kts | 251° |
| 2026-04-24 13:29 | 52.97952 | 7.02252 | 37283 ft | 396 kts | 251° |
| 2026-04-24 13:30 | 52.97076 | 6.97968 | 37482 ft | 397 kts | 251° |
| 2026-04-24 13:30 | 52.96190 | 6.93640 | 37690 ft | 398 kts | 251° |
| 2026-04-24 13:30 | 52.95293 | 6.89273 | 37885 ft | 398 kts | 251° |
| 2026-04-24 13:30 | 52.94413 | 6.84988 | 38065 ft | 399 kts | 251° |
| 2026-04-24 13:31 | 52.93512 | 6.80620 | 38225 ft | 401 kts | 251° |
| 2026-04-24 13:31 | 52.92604 | 6.76229 | 38227 ft | 402 kts | 251° |
| 2026-04-24 13:31 | 52.90793 | 6.67491 | 38231 ft | 403 kts | 251° |
| 2026-04-24 13:32 | 52.88974 | 6.58750 | 38232 ft | 403 kts | 251° |
| 2026-04-24 13:32 | 52.87135 | 6.49957 | 38228 ft | 403 kts | 251° |
| 2026-04-24 13:33 | 52.85298 | 6.41222 | 38232 ft | 403 kts | 251° |
| 2026-04-24 13:33 | 52.83453 | 6.32482 | 38236 ft | 402 kts | 250° |
| 2026-04-24 13:34 | 52.81598 | 6.23717 | 38241 ft | 402 kts | 250° |
| 2026-04-24 13:34 | 52.79745 | 6.15009 | 38246 ft | 402 kts | 250° |
| 2026-04-24 13:35 | 52.77889 | 6.06332 | 38255 ft | 402 kts | 250° |
| 2026-04-24 13:35 | 52.76026 | 5.97631 | 38262 ft | 402 kts | 250° |
| 2026-04-24 13:36 | 52.74357 | 5.88833 | 38259 ft | 403 kts | 255° |
| 2026-04-24 13:36 | 52.73218 | 5.79793 | 38259 ft | 404 kts | 260° |
| 2026-04-24 13:37 | 52.72635 | 5.70615 | 38259 ft | 406 kts | 265° |
| 2026-04-24 13:37 | 52.72464 | 5.61362 | 38258 ft | 406 kts | 267° |
| 2026-04-24 13:38 | 52.72317 | 5.52068 | 38255 ft | 406 kts | 267° |
| 2026-04-24 13:38 | 52.72166 | 5.42769 | 38246 ft | 406 kts | 267° |
| 2026-04-24 13:39 | 52.72007 | 5.33500 | 38249 ft | 406 kts | 266° |
| 2026-04-24 13:39 | 52.71841 | 5.24193 | 38246 ft | 406 kts | 266° |
| 2026-04-24 13:40 | 52.71670 | 5.14961 | 38252 ft | 407 kts | 266° |
| 2026-04-24 13:40 | 52.71488 | 5.05632 | 38263 ft | 407 kts | 266° |
| 2026-04-24 13:41 | 52.71299 | 4.96322 | 38255 ft | 407 kts | 266° |
| 2026-04-24 13:41 | 52.71104 | 4.87033 | 38274 ft | 407 kts | 266° |
| 2026-04-24 13:42 | 52.71003 | 4.82387 | 38036 ft | 407 kts | 266° |
| 2026-04-24 13:42 | 52.70899 | 4.77714 | 38176 ft | 408 kts | 266° |
| 2026-04-24 13:42 | 52.70793 | 4.73031 | 38327 ft | 408 kts | 266° |
| 2026-04-24 13:42 | 52.70688 | 4.68427 | 38302 ft | 407 kts | 266° |
| 2026-04-24 13:43 | 52.70586 | 4.59100 | 38271 ft | 409 kts | 271° |
| 2026-04-24 13:43 | 52.70862 | 4.54426 | 38047 ft | 410 kts | 276° |
| 2026-04-24 13:43 | 52.71411 | 4.49798 | 38360 ft | 413 kts | 281° |
| 2026-04-24 13:44 | 52.72218 | 4.45319 | 38209 ft | 414 kts | 286° |
| 2026-04-24 13:44 | 52.73304 | 4.40888 | 38260 ft | 417 kts | 292° |
| 2026-04-24 13:44 | 52.76062 | 4.32444 | 38289 ft | 419 kts | 295° |
| 2026-04-24 13:45 | 52.78928 | 4.24059 | 38285 ft | 418 kts | 295° |
| 2026-04-24 13:45 | 52.81760 | 4.15709 | 38285 ft | 419 kts | 295° |
| 2026-04-24 13:46 | 52.84580 | 4.07356 | 38278 ft | 419 kts | 295° |
| 2026-04-24 13:46 | 52.87412 | 3.98931 | 38282 ft | 419 kts | 295° |
| 2026-04-24 13:47 | 52.90223 | 3.90537 | 38283 ft | 419 kts | 295° |
| 2026-04-24 13:47 | 52.93028 | 3.82130 | 38276 ft | 419 kts | 295° |
| 2026-04-24 13:48 | 52.95834 | 3.73686 | 38287 ft | 419 kts | 295° |
| 2026-04-24 13:48 | 52.98626 | 3.65266 | 38294 ft | 420 kts | 295° |
| 2026-04-24 13:49 | 53.01424 | 3.56818 | 38296 ft | 419 kts | 295° |
| 2026-04-24 13:49 | 53.04220 | 3.48332 | 38295 ft | 419 kts | 295° |
| 2026-04-24 13:50 | 53.06981 | 3.39864 | 38291 ft | 420 kts | 294° |
| 2026-04-24 13:50 | 53.09375 | 3.31018 | 38293 ft | 418 kts | 288° |
| 2026-04-24 13:51 | 53.11153 | 3.21975 | 38295 ft | 416 kts | 282° |
| 2026-04-24 13:51 | 53.12466 | 3.12609 | 38299 ft | 417 kts | 280° |
| 2026-04-24 13:52 | 53.13699 | 3.03251 | 38302 ft | 417 kts | 280° |
| 2026-04-24 13:52 | 53.14934 | 2.93834 | 38307 ft | 417 kts | 280° |
| 2026-04-24 13:53 | 53.16166 | 2.84400 | 38309 ft | 417 kts | 280° |
| 2026-04-24 13:53 | 53.17383 | 2.74997 | 38303 ft | 417 kts | 280° |
| 2026-04-24 13:54 | 53.18598 | 2.65556 | 38299 ft | 418 kts | 280° |
| 2026-04-24 13:54 | 53.19800 | 2.56151 | 38304 ft | 419 kts | 280° |
| 2026-04-24 13:55 | 53.21007 | 2.46667 | 38300 ft | 419 kts | 280° |
| 2026-04-24 13:55 | 53.22204 | 2.37198 | 38302 ft | 419 kts | 280° |
| 2026-04-24 13:56 | 53.23402 | 2.27638 | 38300 ft | 420 kts | 280° |
| 2026-04-24 13:56 | 53.24581 | 2.18159 | 38305 ft | 421 kts | 280° |
| 2026-04-24 13:57 | 53.25760 | 2.08604 | 38295 ft | 421 kts | 279° |
| 2026-04-24 13:57 | 53.26924 | 1.99090 | 38312 ft | 421 kts | 280° |
| 2026-04-24 13:58 | 53.28089 | 1.89515 | 38321 ft | 421 kts | 280° |
| 2026-04-24 13:58 | 53.29241 | 1.79961 | 38304 ft | 421 kts | 280° |
| 2026-04-24 13:59 | 53.30381 | 1.70439 | 38302 ft | 422 kts | 280° |
| 2026-04-24 13:59 | 53.31523 | 1.60822 | 38306 ft | 422 kts | 280° |
| 2026-04-24 14:00 | 53.32673 | 1.51222 | 38309 ft | 423 kts | 282° |
| 2026-04-24 14:00 | 53.34045 | 1.41704 | 38310 ft | 424 kts | 283° |
| 2026-04-24 14:01 | 53.35437 | 1.32164 | 38308 ft | 423 kts | 282° |
| 2026-04-24 14:01 | 53.36818 | 1.22612 | 38304 ft | 424 kts | 282° |
| 2026-04-24 14:02 | 53.38192 | 1.13039 | 38299 ft | 424 kts | 282° |
| 2026-04-24 14:02 | 53.39552 | 1.03484 | 38293 ft | 424 kts | 282° |
| 2026-04-24 14:03 | 53.40911 | 0.93878 | 38304 ft | 425 kts | 282° |
| 2026-04-24 14:03 | 53.42260 | 0.84289 | 38293 ft | 425 kts | 282° |
| 2026-04-24 14:04 | 53.43601 | 0.74680 | 38298 ft | 426 kts | 282° |
| 2026-04-24 14:04 | 53.44938 | 0.65031 | 38303 ft | 426 kts | 282° |
| 2026-04-24 14:05 | 53.46274 | 0.55338 | 38306 ft | 426 kts | 282° |
| 2026-04-24 14:05 | 53.47593 | 0.45684 | 38304 ft | 427 kts | 283° |
| 2026-04-24 14:06 | 53.48909 | 0.36031 | 38304 ft | 426 kts | 283° |
| 2026-04-24 14:06 | 53.50220 | 0.26355 | 38294 ft | 427 kts | 282° |
| 2026-04-24 14:07 | 53.51530 | 0.16589 | 38305 ft | 426 kts | 282° |
| 2026-04-24 14:07 | 53.52824 | 0.06886 | 38301 ft | 426 kts | 282° |
| 2026-04-24 14:08 | 53.54113 | -0.02808 | 38309 ft | 427 kts | 282° |
| 2026-04-24 14:08 | 53.55396 | -0.12546 | 38314 ft | 427 kts | 282° |
| 2026-04-24 14:09 | 53.56662 | -0.22245 | 38319 ft | 428 kts | 282° |
| 2026-04-24 14:09 | 53.57932 | -0.32030 | 38317 ft | 427 kts | 282° |
| 2026-04-24 14:10 | 53.59194 | -0.41776 | 38313 ft | 428 kts | 283° |
| 2026-04-24 14:10 | 53.60444 | -0.51517 | 38314 ft | 428 kts | 283° |
| 2026-04-24 14:11 | 53.61690 | -0.61316 | 38299 ft | 428 kts | 283° |
| 2026-04-24 14:12 | 53.63546 | -0.76071 | 38291 ft | 428 kts | 282° |
| 2026-04-24 14:12 | 53.64771 | -0.85880 | 38285 ft | 429 kts | 282° |
| 2026-04-24 14:13 | 53.65986 | -0.95653 | 38267 ft | 430 kts | 282° |
| 2026-04-24 14:13 | 53.67206 | -1.05524 | 38269 ft | 430 kts | 282° |
| 2026-04-24 14:14 | 53.68421 | -1.15460 | 38268 ft | 431 kts | 282° |
| 2026-04-24 14:14 | 53.70227 | -1.30388 | 38272 ft | 431 kts | 283° |
| 2026-04-24 14:15 | 53.71419 | -1.40341 | 38272 ft | 430 kts | 283° |
| 2026-04-24 14:15 | 53.72597 | -1.50226 | 38388 ft | 430 kts | 283° |
| 2026-04-24 14:16 | 53.73759 | -1.60101 | 38304 ft | 430 kts | 282° |
| 2026-04-24 14:17 | 53.75394 | -1.74999 | 38294 ft | 430 kts | 281° |
| 2026-04-24 14:17 | 53.77014 | -1.90023 | 38288 ft | 430 kts | 282° |
| 2026-04-24 14:18 | 53.78079 | -1.99998 | 38292 ft | 430 kts | 282° |
| 2026-04-24 14:18 | 53.79133 | -2.09941 | 38283 ft | 430 kts | 282° |
| 2026-04-24 14:19 | 53.80182 | -2.19920 | 38305 ft | 430 kts | 282° |
| 2026-04-24 14:19 | 53.81217 | -2.29845 | 38290 ft | 429 kts | 282° |
| 2026-04-24 14:20 | 53.82236 | -2.39704 | 38280 ft | 429 kts | 282° |
| 2026-04-24 14:20 | 53.83257 | -2.49656 | 38301 ft | 429 kts | 282° |
| 2026-04-24 14:21 | 53.84269 | -2.59618 | 38292 ft | 428 kts | 282° |
| 2026-04-24 14:21 | 53.85268 | -2.69536 | 38297 ft | 429 kts | 281° |
| 2026-04-24 14:22 | 53.86267 | -2.79542 | 38308 ft | 428 kts | 281° |
| 2026-04-24 14:23 | 53.87729 | -2.94351 | 38097 ft | 428 kts | 281° |
| 2026-04-24 14:23 | 53.88218 | -2.99347 | 38234 ft | 428 kts | 281° |
| 2026-04-24 14:23 | 53.88704 | -3.04322 | 38279 ft | 429 kts | 281° |
| 2026-04-24 14:24 | 53.89664 | -3.14243 | 38281 ft | 429 kts | 281° |
| 2026-04-24 14:24 | 53.90613 | -3.24155 | 38278 ft | 429 kts | 281° |
| 2026-04-24 14:25 | 53.91402 | -3.32472 | 38282 ft | 428 kts | 281° |
| 2026-04-24 14:25 | 53.92493 | -3.44074 | 38273 ft | 428 kts | 281° |
| 2026-04-24 14:26 | 53.93164 | -3.54070 | 38271 ft | 430 kts | 275° |
| 2026-04-24 14:26 | 53.93507 | -3.64142 | 38278 ft | 430 kts | 275° |
| 2026-04-24 14:27 | 53.93821 | -3.74093 | 38271 ft | 429 kts | 274° |
| 2026-04-24 14:27 | 53.93980 | -3.79158 | 38380 ft | 430 kts | 274° |
| 2026-04-24 14:27 | 53.94136 | -3.84215 | 38385 ft | 430 kts | 274° |
| 2026-04-24 14:28 | 53.94440 | -3.94242 | 38287 ft | 430 kts | 274° |
| 2026-04-24 14:28 | 53.94740 | -4.04361 | 38137 ft | 430 kts | 274° |
| 2026-04-24 14:29 | 53.95029 | -4.14463 | 38258 ft | 431 kts | 274° |
| 2026-04-24 14:29 | 53.95309 | -4.24590 | 38273 ft | 431 kts | 274° |
| 2026-04-24 14:30 | 53.95538 | -4.33045 | 38277 ft | 431 kts | 274° |
| 2026-04-24 14:30 | 53.95846 | -4.44834 | 38276 ft | 431 kts | 274° |
| 2026-04-24 14:31 | 53.96102 | -4.54981 | 38283 ft | 431 kts | 274° |
| 2026-04-24 14:31 | 53.96348 | -4.65036 | 38291 ft | 432 kts | 272° |
| 2026-04-24 14:32 | 53.96592 | -4.75337 | 38281 ft | 432 kts | 272° |
| 2026-04-24 14:32 | 53.96823 | -4.85495 | 38282 ft | 433 kts | 272° |
| 2026-04-24 14:33 | 53.97046 | -4.95671 | 38279 ft | 434 kts | 272° |
| 2026-04-24 14:33 | 53.97260 | -5.05894 | 38273 ft | 434 kts | 272° |
| 2026-04-24 14:34 | 53.97467 | -5.16148 | 38277 ft | 433 kts | 272° |
| 2026-04-24 14:34 | 53.97664 | -5.26321 | 38276 ft | 434 kts | 272° |
| 2026-04-24 14:35 | 53.97853 | -5.36544 | 38272 ft | 433 kts | 272° |
| 2026-04-24 14:35 | 53.98033 | -5.46733 | 38269 ft | 434 kts | 272° |
| 2026-04-24 14:36 | 53.98205 | -5.56945 | 38271 ft | 435 kts | 271° |
| 2026-04-24 14:36 | 53.98363 | -5.66955 | 38271 ft | 436 kts | 271° |
| 2026-04-24 14:37 | 53.98517 | -5.77193 | 38273 ft | 436 kts | 271° |
| 2026-04-24 14:37 | 53.98663 | -5.87494 | 38273 ft | 437 kts | 271° |
| 2026-04-24 14:38 | 53.98801 | -5.97772 | 38272 ft | 437 kts | 271° |
| 2026-04-24 14:38 | 53.98931 | -6.08056 | 38266 ft | 437 kts | 271° |
| 2026-04-24 14:39 | 53.99051 | -6.18378 | 38258 ft | 437 kts | 270° |
| 2026-04-24 14:39 | 53.99162 | -6.28661 | 38255 ft | 437 kts | 270° |
| 2026-04-24 14:40 | 53.99265 | -6.38995 | 38253 ft | 438 kts | 270° |
| 2026-04-24 14:40 | 53.99359 | -6.49266 | 38248 ft | 438 kts | 270° |
| 2026-04-24 14:41 | 53.99443 | -6.59591 | 38242 ft | 439 kts | 270° |
| 2026-04-24 14:41 | 53.99519 | -6.69986 | 38233 ft | 439 kts | 269° |
| 2026-04-24 14:42 | 53.99574 | -6.78583 | 38231 ft | 440 kts | 269° |
| 2026-04-24 14:42 | 53.99639 | -6.90697 | 38229 ft | 440 kts | 269° |
| 2026-04-24 14:43 | 53.99654 | -7.00995 | 38227 ft | 440 kts | 267° |
| 2026-04-24 14:43 | 53.99489 | -7.11389 | 38225 ft | 440 kts | 267° |
| 2026-04-24 14:44 | 53.99303 | -7.21728 | 38222 ft | 441 kts | 266° |
| 2026-04-24 14:44 | 53.99106 | -7.32149 | 38220 ft | 441 kts | 266° |
| 2026-04-24 14:45 | 53.98900 | -7.42530 | 38221 ft | 442 kts | 266° |
| 2026-04-24 14:45 | 53.98686 | -7.52911 | 38217 ft | 442 kts | 266° |
| 2026-04-24 14:46 | 53.98463 | -7.63284 | 38214 ft | 442 kts | 266° |
| 2026-04-24 14:46 | 53.98229 | -7.73744 | 38212 ft | 442 kts | 265° |
| 2026-04-24 14:47 | 53.98030 | -7.82361 | 38211 ft | 441 kts | 265° |
| 2026-04-24 14:47 | 53.97741 | -7.94505 | 38212 ft | 442 kts | 265° |
| 2026-04-24 14:48 | 53.97482 | -8.04847 | 38210 ft | 443 kts | 265° |
| 2026-04-24 14:48 | 53.97210 | -8.15325 | 38207 ft | 443 kts | 265° |
| 2026-04-24 14:49 | 53.96933 | -8.25698 | 38206 ft | 444 kts | 265° |
| 2026-04-24 14:49 | 53.96647 | -8.36141 | 38200 ft | 444 kts | 265° |
| 2026-04-24 14:50 | 53.96350 | -8.46534 | 38208 ft | 443 kts | 265° |
| 2026-04-24 14:50 | 53.96045 | -8.56973 | 38207 ft | 443 kts | 265° |
| 2026-04-24 14:51 | 53.95733 | -8.67352 | 38199 ft | 443 kts | 264° |
| 2026-04-24 14:51 | 53.95410 | -8.77764 | 38201 ft | 443 kts | 264° |
| 2026-04-24 14:52 | 53.95077 | -8.88201 | 38201 ft | 444 kts | 264° |
| 2026-04-24 14:52 | 53.94736 | -8.98600 | 38191 ft | 444 kts | 264° |
| 2026-04-24 14:53 | 53.94386 | -9.09012 | 38189 ft | 444 kts | 264° |
| 2026-04-24 14:53 | 53.94025 | -9.19473 | 38193 ft | 445 kts | 263° |
| 2026-04-24 14:54 | 53.93646 | -9.30176 | 38182 ft | 444 kts | 264° |
| 2026-04-24 14:54 | 53.93268 | -9.40601 | 38175 ft | 445 kts | 263° |
| 2026-04-24 14:55 | 53.92947 | -9.49261 | 38169 ft | 446 kts | 263° |
| 2026-04-24 14:55 | 53.92485 | -9.61457 | 38160 ft | 447 kts | 263° |
| 2026-04-24 14:56 | 53.92077 | -9.71932 | 38151 ft | 447 kts | 262° |
| 2026-04-24 14:56 | 53.91660 | -9.82415 | 38145 ft | 448 kts | 262° |
| 2026-04-24 14:57 | 53.91230 | -9.92940 | 38141 ft | 449 kts | 262° |
| 2026-04-24 14:57 | 53.90794 | -10.03423 | 38139 ft | 449 kts | 262° |
| 2026-04-24 14:58 | 53.90348 | -10.13918 | 38138 ft | 448 kts | 262° |
| 2026-04-24 14:58 | 53.89889 | -10.24415 | 38142 ft | 449 kts | 262° |
| 2026-04-24 14:59 | 53.89420 | -10.34992 | 38139 ft | 450 kts | 262° |
| 2026-04-24 14:59 | 53.89214 | -10.45604 | 38137 ft | 454 kts | 268° |
| 2026-04-24 15:00 | 53.89600 | -10.56218 | 38141 ft | 457 kts | 271° |
| 2026-04-24 15:00 | 53.90087 | -10.66916 | 38140 ft | 456 kts | 270° |
| 2026-04-24 15:01 | 53.90561 | -10.77650 | 38140 ft | 456 kts | 270° |
| 2026-04-24 15:01 | 53.91014 | -10.88270 | 38142 ft | 457 kts | 270° |
| 2026-04-24 15:02 | 53.91460 | -10.98993 | 38143 ft | 457 kts | 269° |
| 2026-04-24 15:02 | 53.91898 | -11.09741 | 38153 ft | 458 kts | 270° |
| 2026-04-24 15:03 | 53.92250 | -11.18619 | 38156 ft | 458 kts | 269° |
| 2026-04-24 15:03 | 53.92739 | -11.31195 | 38157 ft | 459 kts | 270° |
| 2026-04-24 15:04 | 53.93145 | -11.41915 | 38154 ft | 459 kts | 269° |
| 2026-04-24 15:04 | 53.93543 | -11.52658 | 38150 ft | 460 kts | 269° |
| 2026-04-24 15:05 | 53.93934 | -11.63506 | 38152 ft | 461 kts | 269° |
| 2026-04-24 15:05 | 53.94315 | -11.74309 | 38154 ft | 461 kts | 269° |
| 2026-04-24 15:06 | 53.94685 | -11.85097 | 38141 ft | 461 kts | 269° |
| 2026-04-24 15:06 | 53.95047 | -11.95971 | 38136 ft | 463 kts | 268° |
| 2026-04-24 15:07 | 53.95399 | -12.06824 | 38150 ft | 463 kts | 269° |
| 2026-04-24 15:07 | 53.95742 | -12.17662 | 38138 ft | 464 kts | 268° |
| 2026-04-24 15:08 | 53.96075 | -12.28582 | 38134 ft | 464 kts | 268° |
| 2026-04-24 15:08 | 53.96400 | -12.39491 | 38139 ft | 466 kts | 268° |
| 2026-04-24 15:09 | 53.96713 | -12.50405 | 38119 ft | 466 kts | 269° |
| 2026-04-24 15:09 | 53.97020 | -12.61334 | 38132 ft | 467 kts | 269° |
| 2026-04-24 15:10 | 53.97318 | -12.72383 | 38137 ft | 468 kts | 268° |
| 2026-04-24 15:10 | 53.97605 | -12.83374 | 38124 ft | 468 kts | 268° |
| 2026-04-24 15:11 | 53.97882 | -12.94367 | 38120 ft | 468 kts | 268° |
| 2026-04-24 15:11 | 53.98147 | -13.05335 | 38119 ft | 469 kts | 268° |
| 2026-04-24 15:12 | 53.98403 | -13.16343 | 38122 ft | 469 kts | 268° |
| 2026-04-24 15:12 | 53.98772 | -13.32914 | 38106 ft | 470 kts | 268° |
| 2026-04-24 15:13 | 53.99002 | -13.43950 | 38110 ft | 471 kts | 268° |
| 2026-04-24 15:13 | 53.99224 | -13.55001 | 38108 ft | 471 kts | 268° |
| 2026-04-24 15:14 | 53.99437 | -13.66142 | 38087 ft | 472 kts | 267° |
| 2026-04-24 15:14 | 53.99636 | -13.77216 | 38120 ft | 472 kts | 267° |
| 2026-04-24 15:15 | 53.99827 | -13.88348 | 38096 ft | 472 kts | 267° |
| 2026-04-24 15:15 | 54.00008 | -13.99451 | 38084 ft | 473 kts | 267° |
| 2026-04-24 15:16 | 54.00087 | -14.10560 | 38096 ft | 473 kts | 265° |
| 2026-04-24 15:16 | 54.00104 | -14.21661 | 38090 ft | 473 kts | 265° |
| 2026-04-24 15:17 | 54.00118 | -14.32827 | 38078 ft | 473 kts | 265° |
| 2026-04-24 15:17 | 54.00126 | -14.43897 | 38085 ft | 474 kts | 265° |
| 2026-04-24 15:18 | 54.00125 | -14.55064 | 38082 ft | 474 kts | 265° |
| 2026-04-24 15:18 | 54.00113 | -14.66225 | 38094 ft | 473 kts | 265° |
| 2026-04-24 15:19 | 54.00088 | -14.77346 | 38069 ft | 473 kts | 265° |
| 2026-04-24 15:19 | 54.00135 | -14.88479 | 38057 ft | 475 kts | 268° |
| 2026-04-24 15:20 | 54.00861 | -14.99651 | 38081 ft | 480 kts | 276° |
| 2026-04-24 15:20 | 54.02435 | -15.10643 | 38077 ft | 485 kts | 284° |
| 2026-04-24 15:21 | 54.04747 | -15.21452 | 38070 ft | 486 kts | 289° |
| 2026-04-24 15:21 | 54.07162 | -15.32099 | 38047 ft | 485 kts | 289° |
| 2026-04-24 15:22 | 54.09562 | -15.42811 | 38073 ft | 486 kts | 288° |
| 2026-04-24 15:23 | 54.13118 | -15.58892 | 38057 ft | 486 kts | 288° |
| 2026-04-24 15:23 | 54.16643 | -15.74987 | 38060 ft | 486 kts | 288° |
| 2026-04-24 15:25 | 54.22085 | -16.00098 | 38063 ft | 486 kts | 288° |
| 2026-04-24 15:26 | 54.28236 | -16.28855 | 38056 ft | 486 kts | 288° |
| 2026-04-24 15:27 | 54.35093 | -16.61399 | 38042 ft | 486 kts | 288° |
| 2026-04-24 15:29 | 54.41856 | -16.94022 | 38032 ft | 485 kts | 287° |
| 2026-04-24 15:31 | 54.49271 | -17.30420 | 38025 ft | 487 kts | 287° |
| 2026-04-24 15:33 | 54.58412 | -17.76224 | 38016 ft | 489 kts | 286° |
| 2026-04-24 15:34 | 54.63815 | -18.03819 | 38010 ft | 489 kts | 287° |
| 2026-04-24 15:35 | 54.69165 | -18.31543 | 38015 ft | 489 kts | 287° |
| 2026-04-24 15:36 | 54.71299 | -18.42710 | 38012 ft | 489 kts | 287° |
| 2026-04-24 15:36 | 54.74454 | -18.59336 | 37999 ft | 489 kts | 286° |
| 2026-04-24 15:37 | 54.76558 | -18.70515 | 38014 ft | 490 kts | 285° |
| 2026-04-24 15:37 | 54.78648 | -18.81688 | 38001 ft | 490 kts | 285° |
| 2026-04-24 15:38 | 54.80729 | -18.92873 | 38003 ft | 490 kts | 286° |
| 2026-04-24 15:38 | 54.82791 | -19.04027 | 37993 ft | 489 kts | 286° |
| 2026-04-24 15:39 | 54.84858 | -19.15272 | 38002 ft | 489 kts | 286° |
| 2026-04-24 15:39 | 54.86888 | -19.26387 | 37981 ft | 489 kts | 286° |
| 2026-04-24 15:40 | 54.88936 | -19.37658 | 37962 ft | 489 kts | 286° |
| 2026-04-24 15:40 | 54.90953 | -19.48844 | 37991 ft | 491 kts | 286° |
| 2026-04-24 15:41 | 54.92987 | -19.60179 | 37993 ft | 491 kts | 286° |
| 2026-04-24 15:41 | 54.94992 | -19.71438 | 37988 ft | 491 kts | 285° |
| 2026-04-24 15:42 | 54.96986 | -19.82713 | 37978 ft | 490 kts | 285° |
| 2026-04-24 15:42 | 54.98976 | -19.94039 | 37973 ft | 490 kts | 285° |
| 2026-04-24 15:43 | 55.00818 | -20.05365 | 37964 ft | 489 kts | 282° |
| 2026-04-24 15:43 | 55.02459 | -20.16791 | 37985 ft | 490 kts | 282° |
| 2026-04-24 15:44 | 55.04089 | -20.28315 | 37994 ft | 491 kts | 282° |
| 2026-04-24 15:44 | 55.05708 | -20.39823 | 37961 ft | 490 kts | 282° |
| 2026-04-24 15:45 | 55.07315 | -20.51303 | 37993 ft | 490 kts | 282° |
| 2026-04-24 15:45 | 55.08915 | -20.62824 | 37987 ft | 490 kts | 282° |
| 2026-04-24 15:46 | 55.10503 | -20.74339 | 37967 ft | 489 kts | 281° |
| 2026-04-24 15:46 | 55.12068 | -20.85787 | 37972 ft | 489 kts | 281° |
| 2026-04-24 15:47 | 55.13631 | -20.97297 | 37979 ft | 489 kts | 281° |
| 2026-04-24 15:47 | 55.15184 | -21.08823 | 37991 ft | 489 kts | 281° |
| 2026-04-24 15:48 | 55.16726 | -21.20356 | 37958 ft | 490 kts | 281° |
| 2026-04-24 15:48 | 55.18262 | -21.31931 | 37969 ft | 490 kts | 281° |
| 2026-04-24 15:49 | 55.19785 | -21.43493 | 37979 ft | 490 kts | 281° |
| 2026-04-24 15:49 | 55.21290 | -21.55019 | 37958 ft | 490 kts | 281° |
| 2026-04-24 15:50 | 55.22790 | -21.66615 | 37981 ft | 490 kts | 280° |
| 2026-04-24 15:50 | 55.24270 | -21.78137 | 37964 ft | 489 kts | 280° |
| 2026-04-24 15:51 | 55.25749 | -21.89731 | 37968 ft | 489 kts | 280° |
| 2026-04-24 15:51 | 55.27211 | -22.01311 | 37954 ft | 489 kts | 280° |
| 2026-04-24 15:52 | 55.28668 | -22.12929 | 37959 ft | 489 kts | 280° |
| 2026-04-24 15:52 | 55.30113 | -22.24547 | 37958 ft | 490 kts | 280° |
| 2026-04-24 15:53 | 55.31541 | -22.36140 | 37964 ft | 490 kts | 280° |
| 2026-04-24 15:53 | 55.32967 | -22.47796 | 37984 ft | 490 kts | 280° |
| 2026-04-24 15:54 | 55.34374 | -22.59396 | 37960 ft | 489 kts | 280° |
| 2026-04-24 15:54 | 55.35774 | -22.71048 | 37950 ft | 489 kts | 279° |
| 2026-04-24 15:55 | 55.37162 | -22.82697 | 37967 ft | 489 kts | 279° |
| 2026-04-24 15:55 | 55.38541 | -22.94381 | 37931 ft | 489 kts | 279° |
| 2026-04-24 15:56 | 55.39909 | -23.06067 | 37941 ft | 490 kts | 279° |
| 2026-04-24 15:56 | 55.41259 | -23.17714 | 37936 ft | 489 kts | 279° |
| 2026-04-24 15:57 | 55.42609 | -23.29453 | 37916 ft | 490 kts | 279° |
| 2026-04-24 15:57 | 55.43938 | -23.41114 | 38000 ft | 490 kts | 279° |
| 2026-04-24 15:58 | 55.45261 | -23.52819 | 37953 ft | 489 kts | 279° |
| 2026-04-24 15:58 | 55.46571 | -23.64524 | 37958 ft | 490 kts | 279° |
| 2026-04-24 15:59 | 55.47872 | -23.76257 | 37948 ft | 489 kts | 279° |
| 2026-04-24 15:59 | 55.49160 | -23.87974 | 37949 ft | 489 kts | 278° |
| 2026-04-24 16:00 | 55.50434 | -23.99700 | 37944 ft | 489 kts | 279° |
| 2026-04-24 16:00 | 55.51698 | -24.11422 | 37949 ft | 490 kts | 278° |
| 2026-04-24 16:01 | 55.52952 | -24.23164 | 37946 ft | 490 kts | 279° |
| 2026-04-24 16:01 | 55.54199 | -24.34963 | 37946 ft | 490 kts | 279° |
| 2026-04-24 16:02 | 55.55431 | -24.46726 | 37949 ft | 490 kts | 279° |
| 2026-04-24 16:02 | 55.56654 | -24.58528 | 37953 ft | 491 kts | 279° |
| 2026-04-24 16:03 | 55.57874 | -24.70381 | 37948 ft | 490 kts | 278° |
| 2026-04-24 16:03 | 55.59073 | -24.82186 | 37949 ft | 490 kts | 278° |
| 2026-04-24 16:04 | 55.60259 | -24.93986 | 37946 ft | 490 kts | 278° |
| 2026-04-24 16:04 | 55.61431 | -25.05761 | 37957 ft | 491 kts | 278° |
| 2026-04-24 16:05 | 55.63185 | -25.23575 | 37953 ft | 491 kts | 278° |
| 2026-04-24 16:06 | 55.64910 | -25.41406 | 37938 ft | 491 kts | 278° |
| 2026-04-24 16:07 | 55.66604 | -25.59190 | 37940 ft | 492 kts | 278° |
| 2026-04-24 16:07 | 55.68280 | -25.77071 | 37934 ft | 491 kts | 277° |
| 2026-04-24 16:08 | 55.69921 | -25.94870 | 37936 ft | 492 kts | 277° |
| 2026-04-24 16:09 | 55.71543 | -26.12755 | 37939 ft | 492 kts | 277° |
| 2026-04-24 16:09 | 55.72611 | -26.24698 | 37939 ft | 493 kts | 277° |
| 2026-04-24 16:11 | 55.75224 | -26.54537 | 37933 ft | 492 kts | 277° |
| 2026-04-24 16:11 | 55.76248 | -26.66464 | 37920 ft | 492 kts | 277° |
| 2026-04-24 16:12 | 55.77763 | -26.84363 | 37923 ft | 492 kts | 276° |
| 2026-04-24 16:13 | 55.79253 | -27.02313 | 37921 ft | 492 kts | 277° |
| 2026-04-24 16:14 | 55.81200 | -27.26259 | 37931 ft | 491 kts | 277° |
| 2026-04-24 16:14 | 55.82626 | -27.44191 | 37933 ft | 492 kts | 277° |
| 2026-04-24 16:15 | 55.84032 | -27.62217 | 37920 ft | 492 kts | 277° |
| 2026-04-24 16:16 | 55.85410 | -27.80208 | 37927 ft | 491 kts | 276° |
| 2026-04-24 16:17 | 55.87642 | -28.10224 | 37926 ft | 492 kts | 276° |
| 2026-04-24 16:18 | 55.89384 | -28.34336 | 37911 ft | 493 kts | 276° |
| 2026-04-24 16:19 | 55.90656 | -28.52421 | 37910 ft | 493 kts | 276° |
| 2026-04-24 16:20 | 55.91902 | -28.70486 | 37918 ft | 493 kts | 275° |
| 2026-04-24 16:20 | 55.93127 | -28.88642 | 37909 ft | 493 kts | 275° |
| 2026-04-24 16:21 | 55.94319 | -29.06772 | 37909 ft | 493 kts | 275° |
| 2026-04-24 16:22 | 55.95098 | -29.18848 | 37906 ft | 493 kts | 275° |
| 2026-04-24 16:22 | 55.96252 | -29.37051 | 37904 ft | 492 kts | 275° |
| 2026-04-24 16:23 | 55.97003 | -29.49151 | 37901 ft | 492 kts | 276° |
| 2026-04-24 16:24 | 55.98106 | -29.67303 | 37921 ft | 493 kts | 275° |
| 2026-04-24 16:24 | 55.98821 | -29.79325 | 37908 ft | 493 kts | 275° |
| 2026-04-24 16:25 | 55.99527 | -29.91461 | 37905 ft | 492 kts | 275° |
| 2026-04-24 16:25 | 56.00198 | -30.03543 | 37919 ft | 491 kts | 274° |
| 2026-04-24 16:26 | 56.00919 | -30.21725 | 37924 ft | 492 kts | 273° |
| 2026-04-24 16:27 | 56.01595 | -30.39962 | 37912 ft | 493 kts | 273° |
| 2026-04-24 16:27 | 56.02040 | -30.52134 | 37915 ft | 492 kts | 273° |
| 2026-04-24 16:28 | 56.02474 | -30.64254 | 37915 ft | 492 kts | 273° |
| 2026-04-24 16:28 | 56.03102 | -30.82463 | 37910 ft | 492 kts | 272° |
| 2026-04-24 16:29 | 56.03509 | -30.94603 | 37920 ft | 492 kts | 272° |
| 2026-04-24 16:30 | 56.04283 | -31.18893 | 37904 ft | 491 kts | 272° |
| 2026-04-24 16:30 | 56.04651 | -31.31048 | 37899 ft | 491 kts | 272° |
| 2026-04-24 16:31 | 56.05007 | -31.43169 | 37899 ft | 491 kts | 272° |
| 2026-04-24 16:31 | 56.05351 | -31.55305 | 37900 ft | 491 kts | 272° |
| 2026-04-24 16:32 | 56.05685 | -31.67480 | 37901 ft | 491 kts | 271° |
| 2026-04-24 16:32 | 56.06007 | -31.79594 | 37909 ft | 490 kts | 271° |
| 2026-04-24 16:33 | 56.06313 | -31.91712 | 37909 ft | 490 kts | 271° |
| 2026-04-24 16:33 | 56.06609 | -32.03843 | 37893 ft | 491 kts | 272° |